FIN9XG EFRO-EFHK
Flight info
| Callsign | FIN9XG |
|---|---|
| Flight time | 1h 4m |
| Altitude | 39000 |
| Route | RENVI Y86 LUSEP |
| Aircraft | A319/M-SDE1E2E3FGIJ1M1RWXYZ/LB1 |
Departure
| Time | 2026-05-05 19:32 |
|---|---|
| Airport | Rovaniemi Airport (EFRO) |
Arrival
| Time | 2026-05-05 20:36 |
|---|---|
| Airport | Helsinki Vantaa Airport (EFHK) |
| Time | Latitude | Longitude | Altitude | Speed | Heading |
|---|---|---|---|---|---|
| 2026-05-05 19:00 | 66.55861 | 25.82729 | 625 ft | 0 kts | 155° |
| 2026-05-05 19:25 | 66.55872 | 25.82717 | 622 ft | 4 kts | 155° |
| 2026-05-05 19:25 | 66.55897 | 25.82689 | 623 ft | 4 kts | 155° |
| 2026-05-05 19:25 | 66.55921 | 25.82661 | 623 ft | 4 kts | 155° |
| 2026-05-05 19:26 | 66.55944 | 25.82635 | 622 ft | 2 kts | 155° |
| 2026-05-05 19:26 | 66.55964 | 25.82616 | 622 ft | 4 kts | 185° |
| 2026-05-05 19:26 | 66.55983 | 25.82637 | 621 ft | 4 kts | 217° |
| 2026-05-05 19:26 | 66.56005 | 25.82678 | 623 ft | 4 kts | 217° |
| 2026-05-05 19:27 | 66.56026 | 25.82719 | 623 ft | 3 kts | 217° |
| 2026-05-05 19:27 | 66.56030 | 25.82726 | 622 ft | 1 kts | 217° |
| 2026-05-05 19:29 | 66.56019 | 25.82704 | 622 ft | 4 kts | 217° |
| 2026-05-05 19:29 | 66.55983 | 25.82636 | 621 ft | 8 kts | 217° |
| 2026-05-05 19:29 | 66.55926 | 25.82527 | 619 ft | 12 kts | 217° |
| 2026-05-05 19:29 | 66.55847 | 25.82375 | 619 ft | 16 kts | 217° |
| 2026-05-05 19:30 | 66.55739 | 25.82165 | 614 ft | 23 kts | 218° |
| 2026-05-05 19:30 | 66.55604 | 25.81905 | 612 ft | 25 kts | 217° |
| 2026-05-05 19:30 | 66.55474 | 25.81660 | 622 ft | 20 kts | 217° |
| 2026-05-05 19:30 | 66.55388 | 25.81499 | 627 ft | 13 kts | 216° |
| 2026-05-05 19:31 | 66.55338 | 25.81334 | 627 ft | 10 kts | 259° |
| 2026-05-05 19:31 | 66.55361 | 25.81167 | 625 ft | 12 kts | 311° |
| 2026-05-05 19:31 | 66.55415 | 25.81085 | 624 ft | 7 kts | 333° |
| 2026-05-05 19:31 | 66.55458 | 25.81088 | 623 ft | 4 kts | 28° |
| 2026-05-05 19:32 | 66.55496 | 25.81162 | 621 ft | 11 kts | 37° |
| 2026-05-05 19:32 | 66.55706 | 25.81561 | 614 ft | 81 kts | 37° |
| 2026-05-05 19:32 | 66.56381 | 25.82844 | 638 ft | 156 kts | 37° |
| 2026-05-05 19:32 | 66.57277 | 25.84578 | 1336 ft | 163 kts | 37° |
| 2026-05-05 19:33 | 66.58172 | 25.86289 | 2254 ft | 160 kts | 37° |
| 2026-05-05 19:33 | 66.59059 | 25.87971 | 3075 ft | 162 kts | 37° |
| 2026-05-05 19:33 | 66.60015 | 25.89789 | 3540 ft | 184 kts | 37° |
| 2026-05-05 19:33 | 66.61068 | 25.91908 | 4118 ft | 199 kts | 46° |
| 2026-05-05 19:34 | 66.61589 | 25.95130 | 4907 ft | 210 kts | 88° |
| 2026-05-05 19:34 | 66.61140 | 25.98851 | 5399 ft | 238 kts | 118° |
| 2026-05-05 19:34 | 66.60158 | 26.02336 | 6216 ft | 249 kts | 127° |
| 2026-05-05 19:35 | 66.57350 | 26.07499 | 8094 ft | 263 kts | 166° |
| 2026-05-05 19:35 | 66.55496 | 26.07889 | 8862 ft | 279 kts | 187° |
| 2026-05-05 19:35 | 66.53616 | 26.06371 | 9582 ft | 290 kts | 206° |
| 2026-05-05 19:35 | 66.51755 | 26.04143 | 10063 ft | 312 kts | 206° |
| 2026-05-05 19:36 | 66.49728 | 26.01733 | 10572 ft | 329 kts | 206° |
| 2026-05-05 19:36 | 66.47632 | 25.99270 | 11402 ft | 336 kts | 205° |
| 2026-05-05 19:36 | 66.45503 | 25.96789 | 12297 ft | 340 kts | 205° |
| 2026-05-05 19:36 | 66.43347 | 25.94283 | 13203 ft | 344 kts | 205° |
| 2026-05-05 19:37 | 66.41169 | 25.91751 | 14014 ft | 347 kts | 205° |
| 2026-05-05 19:37 | 66.38966 | 25.89199 | 14817 ft | 351 kts | 205° |
| 2026-05-05 19:37 | 66.36745 | 25.86626 | 15605 ft | 354 kts | 206° |
| 2026-05-05 19:37 | 66.34504 | 25.84026 | 16406 ft | 357 kts | 206° |
| 2026-05-05 19:38 | 66.32239 | 25.81397 | 17178 ft | 361 kts | 206° |
| 2026-05-05 19:38 | 66.29947 | 25.78740 | 17941 ft | 365 kts | 206° |
| 2026-05-05 19:38 | 66.27632 | 25.76063 | 18595 ft | 369 kts | 205° |
| 2026-05-05 19:38 | 66.25292 | 25.73360 | 19263 ft | 372 kts | 205° |
| 2026-05-05 19:39 | 66.22931 | 25.70637 | 19935 ft | 376 kts | 205° |
| 2026-05-05 19:39 | 66.20550 | 25.67899 | 20633 ft | 379 kts | 205° |
| 2026-05-05 19:39 | 66.18146 | 25.65144 | 21290 ft | 383 kts | 205° |
| 2026-05-05 19:39 | 66.15718 | 25.62370 | 21959 ft | 386 kts | 204° |
| 2026-05-05 19:40 | 66.13263 | 25.59581 | 22600 ft | 391 kts | 204° |
| 2026-05-05 19:40 | 66.10783 | 25.56774 | 23251 ft | 393 kts | 204° |
| 2026-05-05 19:40 | 66.08212 | 25.54394 | 23774 ft | 397 kts | 195° |
| 2026-05-05 19:40 | 66.05508 | 25.53136 | 24397 ft | 396 kts | 185° |
| 2026-05-05 19:41 | 66.02754 | 25.52850 | 24937 ft | 398 kts | 182° |
| 2026-05-05 19:41 | 65.99980 | 25.52689 | 25462 ft | 400 kts | 182° |
| 2026-05-05 19:41 | 65.97184 | 25.52534 | 25917 ft | 404 kts | 182° |
| 2026-05-05 19:41 | 65.94362 | 25.52380 | 26367 ft | 408 kts | 182° |
| 2026-05-05 19:42 | 65.91515 | 25.52213 | 26814 ft | 411 kts | 183° |
| 2026-05-05 19:42 | 65.88644 | 25.52029 | 27258 ft | 414 kts | 183° |
| 2026-05-05 19:42 | 65.85748 | 25.51837 | 27697 ft | 418 kts | 183° |
| 2026-05-05 19:42 | 65.82830 | 25.51648 | 28129 ft | 421 kts | 184° |
| 2026-05-05 19:43 | 65.79897 | 25.51471 | 28556 ft | 425 kts | 184° |
| 2026-05-05 19:43 | 65.76925 | 25.51301 | 28957 ft | 428 kts | 184° |
| 2026-05-05 19:43 | 65.73937 | 25.51130 | 29357 ft | 431 kts | 184° |
| 2026-05-05 19:43 | 65.70927 | 25.50954 | 29720 ft | 434 kts | 184° |
| 2026-05-05 19:44 | 65.67897 | 25.50779 | 30022 ft | 437 kts | 184° |
| 2026-05-05 19:44 | 65.64850 | 25.50599 | 30326 ft | 439 kts | 184° |
| 2026-05-05 19:44 | 65.61784 | 25.50418 | 30622 ft | 442 kts | 184° |
| 2026-05-05 19:44 | 65.58744 | 25.50240 | 30910 ft | 444 kts | 184° |
| 2026-05-05 19:45 | 65.55644 | 25.50060 | 31199 ft | 447 kts | 184° |
| 2026-05-05 19:45 | 65.52532 | 25.49878 | 31547 ft | 448 kts | 184° |
| 2026-05-05 19:45 | 65.49419 | 25.49696 | 31954 ft | 447 kts | 184° |
| 2026-05-05 19:45 | 65.46312 | 25.49515 | 32360 ft | 446 kts | 184° |
| 2026-05-05 19:46 | 65.43211 | 25.49341 | 32754 ft | 446 kts | 184° |
| 2026-05-05 19:46 | 65.40108 | 25.49167 | 33155 ft | 446 kts | 184° |
| 2026-05-05 19:46 | 65.37009 | 25.48986 | 33554 ft | 445 kts | 185° |
| 2026-05-05 19:46 | 65.33916 | 25.48802 | 33894 ft | 445 kts | 185° |
| 2026-05-05 19:47 | 65.30824 | 25.48618 | 34206 ft | 445 kts | 185° |
| 2026-05-05 19:47 | 65.27732 | 25.48432 | 34493 ft | 445 kts | 185° |
| 2026-05-05 19:47 | 65.24636 | 25.48246 | 34768 ft | 445 kts | 185° |
| 2026-05-05 19:47 | 65.21543 | 25.48062 | 35043 ft | 445 kts | 185° |
| 2026-05-05 19:48 | 65.18447 | 25.47886 | 35303 ft | 445 kts | 185° |
| 2026-05-05 19:48 | 65.15351 | 25.47716 | 35554 ft | 445 kts | 185° |
| 2026-05-05 19:48 | 65.12253 | 25.47545 | 35800 ft | 445 kts | 185° |
| 2026-05-05 19:48 | 65.09157 | 25.47372 | 36039 ft | 445 kts | 185° |
| 2026-05-05 19:49 | 65.06059 | 25.47193 | 36252 ft | 445 kts | 185° |
| 2026-05-05 19:49 | 65.04007 | 25.47070 | 36395 ft | 445 kts | 185° |
| 2026-05-05 19:49 | 64.99874 | 25.46829 | 36719 ft | 444 kts | 185° |
| 2026-05-05 19:49 | 64.96784 | 25.46659 | 36930 ft | 444 kts | 185° |
| 2026-05-05 19:50 | 64.93697 | 25.46489 | 37124 ft | 444 kts | 185° |
| 2026-05-05 19:50 | 64.90604 | 25.46311 | 37316 ft | 444 kts | 185° |
| 2026-05-05 19:50 | 64.87514 | 25.46130 | 37498 ft | 444 kts | 185° |
| 2026-05-05 19:50 | 64.84422 | 25.45950 | 37687 ft | 444 kts | 185° |
| 2026-05-05 19:51 | 64.81331 | 25.45773 | 37849 ft | 444 kts | 185° |
| 2026-05-05 19:51 | 64.78240 | 25.45603 | 38005 ft | 445 kts | 185° |
| 2026-05-05 19:51 | 64.75147 | 25.45432 | 38167 ft | 445 kts | 185° |
| 2026-05-05 19:51 | 64.72053 | 25.45261 | 38305 ft | 445 kts | 185° |
| 2026-05-05 19:52 | 64.68964 | 25.45088 | 38419 ft | 444 kts | 185° |
| 2026-05-05 19:52 | 64.65880 | 25.44919 | 38566 ft | 443 kts | 185° |
| 2026-05-05 19:52 | 64.62792 | 25.44748 | 38620 ft | 444 kts | 185° |
| 2026-05-05 19:53 | 64.56613 | 25.44409 | 38637 ft | 444 kts | 185° |
| 2026-05-05 19:53 | 64.50434 | 25.44061 | 38636 ft | 444 kts | 185° |
| 2026-05-05 19:54 | 64.44259 | 25.43715 | 38637 ft | 444 kts | 185° |
| 2026-05-05 19:54 | 64.38083 | 25.43374 | 38642 ft | 444 kts | 185° |
| 2026-05-05 19:55 | 64.31906 | 25.43029 | 38631 ft | 444 kts | 186° |
| 2026-05-05 19:55 | 64.25770 | 25.42697 | 38638 ft | 444 kts | 186° |
| 2026-05-05 19:56 | 64.19594 | 25.42358 | 38650 ft | 444 kts | 186° |
| 2026-05-05 19:56 | 64.13416 | 25.42042 | 38664 ft | 444 kts | 186° |
| 2026-05-05 19:57 | 64.07236 | 25.41721 | 38668 ft | 444 kts | 186° |
| 2026-05-05 19:57 | 64.01060 | 25.41381 | 38666 ft | 444 kts | 186° |
| 2026-05-05 19:58 | 63.94890 | 25.41050 | 38669 ft | 444 kts | 186° |
| 2026-05-05 19:58 | 63.88719 | 25.40727 | 38689 ft | 443 kts | 186° |
| 2026-05-05 19:59 | 63.82554 | 25.40398 | 38690 ft | 443 kts | 186° |
| 2026-05-05 19:59 | 63.76388 | 25.40081 | 38692 ft | 443 kts | 186° |
| 2026-05-05 20:00 | 63.71222 | 25.39819 | 38701 ft | 443 kts | 186° |
| 2026-05-05 20:00 | 63.65101 | 25.39506 | 38691 ft | 443 kts | 186° |
| 2026-05-05 20:01 | 63.58946 | 25.39180 | 38708 ft | 442 kts | 186° |
| 2026-05-05 20:01 | 63.52792 | 25.38853 | 38687 ft | 442 kts | 186° |
| 2026-05-05 20:02 | 63.46644 | 25.38535 | 38701 ft | 442 kts | 186° |
| 2026-05-05 20:02 | 63.40486 | 25.38227 | 38707 ft | 442 kts | 186° |
| 2026-05-05 20:03 | 63.34332 | 25.37906 | 38700 ft | 443 kts | 186° |
| 2026-05-05 20:03 | 63.28173 | 25.37595 | 38706 ft | 443 kts | 186° |
| 2026-05-05 20:04 | 63.22012 | 25.37280 | 38726 ft | 443 kts | 186° |
| 2026-05-05 20:04 | 63.15847 | 25.36969 | 38727 ft | 443 kts | 186° |
| 2026-05-05 20:05 | 63.09684 | 25.36656 | 38732 ft | 443 kts | 186° |
| 2026-05-05 20:05 | 63.03517 | 25.36351 | 38746 ft | 443 kts | 187° |
| 2026-05-05 20:06 | 62.97355 | 25.36018 | 38731 ft | 443 kts | 187° |
| 2026-05-05 20:06 | 62.91198 | 25.35713 | 38746 ft | 442 kts | 186° |
| 2026-05-05 20:07 | 62.85049 | 25.35431 | 38751 ft | 442 kts | 186° |
| 2026-05-05 20:07 | 62.78905 | 25.35130 | 38743 ft | 441 kts | 187° |
| 2026-05-05 20:08 | 62.72767 | 25.34821 | 38756 ft | 441 kts | 187° |
| 2026-05-05 20:08 | 62.66636 | 25.34518 | 38750 ft | 440 kts | 187° |
| 2026-05-05 20:09 | 62.60517 | 25.34212 | 38767 ft | 439 kts | 187° |
| 2026-05-05 20:09 | 62.54408 | 25.33893 | 38757 ft | 439 kts | 187° |
| 2026-05-05 20:10 | 62.48302 | 25.33594 | 38755 ft | 439 kts | 187° |
| 2026-05-05 20:10 | 62.42239 | 25.33313 | 38756 ft | 439 kts | 187° |
| 2026-05-05 20:11 | 62.36138 | 25.33022 | 38453 ft | 437 kts | 187° |
| 2026-05-05 20:11 | 62.33100 | 25.32869 | 38207 ft | 437 kts | 187° |
| 2026-05-05 20:11 | 62.30065 | 25.32714 | 37939 ft | 436 kts | 187° |
| 2026-05-05 20:11 | 62.27033 | 25.32565 | 37675 ft | 436 kts | 187° |
| 2026-05-05 20:12 | 62.24005 | 25.32425 | 37425 ft | 435 kts | 187° |
| 2026-05-05 20:12 | 62.20979 | 25.32290 | 37172 ft | 435 kts | 187° |
| 2026-05-05 20:12 | 62.17959 | 25.32156 | 36922 ft | 434 kts | 187° |
| 2026-05-05 20:12 | 62.14941 | 25.32020 | 36665 ft | 433 kts | 187° |
| 2026-05-05 20:13 | 62.11916 | 25.31875 | 35931 ft | 436 kts | 188° |
| 2026-05-05 20:13 | 62.08872 | 25.31720 | 35129 ft | 439 kts | 188° |
| 2026-05-05 20:13 | 62.05810 | 25.31564 | 34420 ft | 439 kts | 189° |
| 2026-05-05 20:13 | 62.02777 | 25.31423 | 33871 ft | 434 kts | 190° |
| 2026-05-05 20:14 | 61.99770 | 25.31291 | 33255 ft | 430 kts | 190° |
| 2026-05-05 20:14 | 61.96806 | 25.31168 | 32690 ft | 423 kts | 191° |
| 2026-05-05 20:14 | 61.93878 | 25.31043 | 32142 ft | 417 kts | 191° |
| 2026-05-05 20:14 | 61.91007 | 25.30917 | 31621 ft | 410 kts | 191° |
| 2026-05-05 20:15 | 61.88177 | 25.30789 | 31119 ft | 403 kts | 192° |
| 2026-05-05 20:15 | 61.85397 | 25.30661 | 30524 ft | 398 kts | 192° |
| 2026-05-05 20:15 | 61.82649 | 25.30530 | 29948 ft | 393 kts | 193° |
| 2026-05-05 20:15 | 61.79931 | 25.30393 | 29274 ft | 388 kts | 193° |
| 2026-05-05 20:16 | 61.77247 | 25.30260 | 28643 ft | 383 kts | 193° |
| 2026-05-05 20:16 | 61.74597 | 25.30135 | 28029 ft | 378 kts | 193° |
| 2026-05-05 20:16 | 61.71984 | 25.30015 | 27427 ft | 373 kts | 194° |
| 2026-05-05 20:16 | 61.69405 | 25.29895 | 26782 ft | 369 kts | 194° |
| 2026-05-05 20:17 | 61.66854 | 25.29777 | 26198 ft | 364 kts | 194° |
| 2026-05-05 20:17 | 61.64336 | 25.29660 | 25618 ft | 360 kts | 194° |
| 2026-05-05 20:17 | 61.61847 | 25.29544 | 25061 ft | 356 kts | 194° |
| 2026-05-05 20:17 | 61.59387 | 25.29425 | 24523 ft | 352 kts | 195° |
| 2026-05-05 20:18 | 61.56954 | 25.29310 | 24002 ft | 348 kts | 195° |
| 2026-05-05 20:18 | 61.54546 | 25.29201 | 23479 ft | 344 kts | 195° |
| 2026-05-05 20:18 | 61.52164 | 25.29092 | 22916 ft | 341 kts | 195° |
| 2026-05-05 20:18 | 61.49795 | 25.28976 | 22329 ft | 340 kts | 194° |
| 2026-05-05 20:19 | 61.47446 | 25.28859 | 21891 ft | 335 kts | 194° |
| 2026-05-05 20:19 | 61.45123 | 25.28750 | 21373 ft | 333 kts | 194° |
| 2026-05-05 20:19 | 61.42810 | 25.28642 | 20820 ft | 332 kts | 193° |
| 2026-05-05 20:19 | 61.40502 | 25.28532 | 20254 ft | 332 kts | 192° |
| 2026-05-05 20:20 | 61.38195 | 25.28421 | 19660 ft | 331 kts | 192° |
| 2026-05-05 20:20 | 61.35893 | 25.28308 | 19145 ft | 330 kts | 192° |
| 2026-05-05 20:20 | 61.33599 | 25.28202 | 18584 ft | 329 kts | 193° |
| 2026-05-05 20:20 | 61.31322 | 25.28104 | 18155 ft | 326 kts | 193° |
| 2026-05-05 20:21 | 61.29064 | 25.28004 | 17606 ft | 324 kts | 192° |
| 2026-05-05 20:21 | 61.26815 | 25.27897 | 17016 ft | 323 kts | 192° |
| 2026-05-05 20:21 | 61.24564 | 25.27785 | 16438 ft | 324 kts | 191° |
| 2026-05-05 20:21 | 61.22307 | 25.27676 | 15866 ft | 325 kts | 189° |
| 2026-05-05 20:22 | 61.20043 | 25.27575 | 15314 ft | 326 kts | 188° |
| 2026-05-05 20:22 | 61.17808 | 25.27481 | 14788 ft | 327 kts | 188° |
| 2026-05-05 20:22 | 61.15533 | 25.27382 | 14274 ft | 327 kts | 187° |
| 2026-05-05 20:22 | 61.13255 | 25.27281 | 13759 ft | 328 kts | 186° |
| 2026-05-05 20:23 | 61.10970 | 25.27180 | 13214 ft | 328 kts | 185° |
| 2026-05-05 20:23 | 61.08688 | 25.27081 | 12688 ft | 327 kts | 185° |
| 2026-05-05 20:23 | 61.06414 | 25.26984 | 12180 ft | 326 kts | 185° |
| 2026-05-05 20:23 | 61.04175 | 25.26886 | 11916 ft | 316 kts | 186° |
| 2026-05-05 20:24 | 61.02018 | 25.26794 | 11773 ft | 304 kts | 186° |
| 2026-05-05 20:24 | 60.99939 | 25.26704 | 11646 ft | 294 kts | 186° |
| 2026-05-05 20:24 | 60.97916 | 25.26614 | 11381 ft | 289 kts | 186° |
| 2026-05-05 20:24 | 60.95913 | 25.26521 | 11016 ft | 287 kts | 185° |
| 2026-05-05 20:25 | 60.93915 | 25.26452 | 10634 ft | 287 kts | 184° |
| 2026-05-05 20:25 | 60.91923 | 25.26458 | 10257 ft | 286 kts | 183° |
| 2026-05-05 20:25 | 60.89932 | 25.26497 | 9870 ft | 286 kts | 182° |
| 2026-05-05 20:25 | 60.87942 | 25.26544 | 9466 ft | 285 kts | 182° |
| 2026-05-05 20:26 | 60.85961 | 25.26587 | 9048 ft | 284 kts | 182° |
| 2026-05-05 20:26 | 60.83989 | 25.26623 | 8644 ft | 282 kts | 182° |
| 2026-05-05 20:26 | 60.82030 | 25.26660 | 8243 ft | 281 kts | 182° |
| 2026-05-05 20:26 | 60.80085 | 25.26691 | 7832 ft | 279 kts | 182° |
| 2026-05-05 20:27 | 60.78151 | 25.26721 | 7438 ft | 277 kts | 182° |
| 2026-05-05 20:27 | 60.76227 | 25.26752 | 7162 ft | 276 kts | 182° |
| 2026-05-05 20:27 | 60.74307 | 25.26784 | 6903 ft | 275 kts | 182° |
| 2026-05-05 20:27 | 60.72393 | 25.26813 | 6638 ft | 275 kts | 182° |
| 2026-05-05 20:28 | 60.70482 | 25.26840 | 6378 ft | 274 kts | 182° |
| 2026-05-05 20:28 | 60.68575 | 25.26868 | 6123 ft | 274 kts | 183° |
| 2026-05-05 20:28 | 60.66674 | 25.26895 | 5852 ft | 273 kts | 182° |
| 2026-05-05 20:28 | 60.64783 | 25.26922 | 5579 ft | 271 kts | 182° |
| 2026-05-05 20:29 | 60.62898 | 25.26947 | 5317 ft | 270 kts | 182° |
| 2026-05-05 20:29 | 60.61022 | 25.26974 | 5065 ft | 269 kts | 182° |
| 2026-05-05 20:29 | 60.59151 | 25.27002 | 4796 ft | 268 kts | 182° |
| 2026-05-05 20:29 | 60.57298 | 25.27026 | 4547 ft | 262 kts | 182° |
| 2026-05-05 20:30 | 60.55518 | 25.27056 | 4400 ft | 249 kts | 182° |
| 2026-05-05 20:30 | 60.53826 | 25.27085 | 4265 ft | 237 kts | 183° |
| 2026-05-05 20:30 | 60.52212 | 25.27111 | 4130 ft | 227 kts | 183° |
| 2026-05-05 20:30 | 60.50666 | 25.27134 | 3995 ft | 218 kts | 183° |
| 2026-05-05 20:31 | 60.49158 | 25.27156 | 3866 ft | 216 kts | 183° |
| 2026-05-05 20:31 | 60.47657 | 25.27147 | 3730 ft | 215 kts | 188° |
| 2026-05-05 20:31 | 60.46247 | 25.26381 | 3616 ft | 207 kts | 211° |
| 2026-05-05 20:31 | 60.45134 | 25.24708 | 3483 ft | 194 kts | 231° |
| 2026-05-05 20:32 | 60.44244 | 25.22726 | 3393 ft | 185 kts | 232° |
| 2026-05-05 20:32 | 60.43403 | 25.20850 | 3285 ft | 179 kts | 232° |
| 2026-05-05 20:32 | 60.42576 | 25.19002 | 3037 ft | 176 kts | 233° |
| 2026-05-05 20:32 | 60.41770 | 25.17206 | 2802 ft | 174 kts | 233° |
| 2026-05-05 20:33 | 60.40962 | 25.15409 | 2562 ft | 172 kts | 233° |
| 2026-05-05 20:33 | 60.40163 | 25.13632 | 2320 ft | 170 kts | 233° |
| 2026-05-05 20:33 | 60.39372 | 25.11874 | 2086 ft | 167 kts | 234° |
| 2026-05-05 20:33 | 60.38606 | 25.10176 | 1857 ft | 160 kts | 234° |
| 2026-05-05 20:34 | 60.37876 | 25.08558 | 1641 ft | 151 kts | 234° |
| 2026-05-05 20:34 | 60.37193 | 25.07050 | 1438 ft | 137 kts | 235° |
| 2026-05-05 20:34 | 60.36577 | 25.05686 | 1249 ft | 127 kts | 235° |
| 2026-05-05 20:34 | 60.35990 | 25.04384 | 1069 ft | 124 kts | 234° |
| 2026-05-05 20:35 | 60.35416 | 25.03110 | 895 ft | 122 kts | 235° |
| 2026-05-05 20:35 | 60.34850 | 25.01857 | 730 ft | 119 kts | 232° |
| 2026-05-05 20:35 | 60.34286 | 25.00599 | 559 ft | 123 kts | 227° |
| 2026-05-05 20:35 | 60.33712 | 24.99322 | 372 ft | 123 kts | 228° |
| 2026-05-05 20:36 | 60.33135 | 24.98052 | 224 ft | 123 kts | 230° |
| 2026-05-05 20:36 | 60.32587 | 24.96850 | 174 ft | 104 kts | 226° |
| 2026-05-05 20:36 | 60.32219 | 24.96033 | 177 ft | 52 kts | 227° |
| 2026-05-05 20:36 | 60.32053 | 24.95744 | 174 ft | 26 kts | 211° |
| 2026-05-05 20:37 | 60.31917 | 24.95627 | 171 ft | 14 kts | 198° |
| 2026-05-05 20:37 | 60.31869 | 24.95596 | 170 ft | 11 kts | 195° |
| 2026-05-05 20:37 | 60.31824 | 24.95724 | 170 ft | 10 kts | 60° |
| 2026-05-05 20:37 | 60.31876 | 24.95844 | 169 ft | 12 kts | 47° |
| 2026-05-05 20:38 | 60.31935 | 24.95973 | 170 ft | 13 kts | 47° |
| 2026-05-05 20:38 | 60.32001 | 24.96118 | 168 ft | 15 kts | 47° |
| 2026-05-05 20:38 | 60.32078 | 24.96286 | 168 ft | 17 kts | 47° |
| 2026-05-05 20:38 | 60.32161 | 24.96469 | 168 ft | 18 kts | 48° |
| 2026-05-05 20:39 | 60.32232 | 24.96627 | 168 ft | 10 kts | 47° |
| 2026-05-05 20:39 | 60.32238 | 24.96732 | 166 ft | 9 kts | 123° |
| 2026-05-05 20:39 | 60.32183 | 24.96807 | 166 ft | 10 kts | 150° |
| 2026-05-05 20:39 | 60.32122 | 24.96867 | 166 ft | 7 kts | 170° |
| 2026-05-05 20:40 | 60.32083 | 24.96826 | 167 ft | 7 kts | 226° |
| 2026-05-05 20:40 | 60.32043 | 24.96744 | 167 ft | 9 kts | 213° |
| 2026-05-05 20:40 | 60.31990 | 24.96735 | 167 ft | 5 kts | 175° |
| 2026-05-05 20:40 | 60.31968 | 24.96739 | 167 ft | 1 kts | 174° |
| 2026-05-05 20:41 | 60.31964 | 24.96740 | 167 ft | 0 kts | 174° |